createdAt,value
2023-04-16T00:01:35.724Z,24.80
2023-04-16T00:04:02.826Z,22.77
2023-04-16T00:06:30.054Z,22.92
2023-04-16T00:08:56.620Z,22.33
2023-04-16T00:11:23.433Z,22.30
2023-04-16T00:13:50.176Z,21.90
2023-04-16T00:16:16.908Z,22.35
2023-04-16T00:18:43.535Z,23.80
2023-04-16T00:21:10.530Z,23.42
2023-04-16T00:23:37.939Z,23.02
2023-04-16T00:26:04.810Z,23.20
2023-04-16T00:28:31.666Z,22.63
2023-04-16T00:31:01.234Z,22.65
2023-04-16T00:33:30.123Z,23.42
2023-04-16T00:35:56.808Z,23.55
2023-04-16T00:38:23.430Z,25.85
2023-04-16T00:40:50.187Z,26.23
2023-04-16T00:43:26.212Z,24.40
2023-04-16T00:45:54.138Z,24.55
2023-04-16T00:48:21.085Z,22.38
2023-04-16T00:50:48.739Z,24.60
2023-04-16T00:53:15.580Z,25.38
2023-04-16T00:55:42.319Z,24.60
2023-04-16T00:58:09.132Z,25.48
2023-04-16T01:00:35.731Z,25.02
2023-04-16T01:03:02.793Z,23.55
2023-04-16T01:05:30.557Z,26.10
2023-04-16T01:07:59.991Z,25.38
2023-04-16T01:10:26.881Z,23.75
2023-04-16T01:12:53.640Z,26.10
2023-04-16T01:15:20.288Z,26.17
2023-04-16T01:17:47.285Z,26.20
2023-04-16T01:20:14.626Z,26.55
2023-04-16T01:22:41.192Z,26.25
2023-04-16T01:25:07.964Z,26.70
2023-04-16T01:27:34.709Z,26.63
2023-04-16T01:30:01.287Z,27.15
2023-04-16T01:32:28.088Z,29.13
2023-04-16T01:34:54.790Z,29.10
2023-04-16T01:37:21.420Z,28.15
2023-04-16T01:39:48.161Z,28.40
2023-04-16T01:42:14.963Z,27.60
2023-04-16T01:44:41.507Z,27.17
2023-04-16T01:47:08.574Z,29.52
2023-04-16T01:49:36.156Z,27.50
2023-04-16T01:52:02.689Z,28.67
2023-04-16T01:54:29.330Z,30.17
2023-04-16T01:56:56.007Z,28.92
2023-04-16T01:59:22.661Z,30.23
2023-04-16T02:01:49.332Z,29.30
2023-04-16T02:04:16.552Z,30.70
2023-04-16T02:06:43.204Z,30.85
2023-04-16T02:09:09.958Z,29.65
2023-04-16T02:11:36.735Z,30.55
2023-04-16T02:14:03.297Z,31.58
2023-04-16T02:16:30.030Z,30.67
2023-04-16T02:18:56.658Z,29.88
2023-04-16T02:21:23.191Z,30.92
2023-04-16T02:23:51.851Z,31.35
2023-04-16T02:26:18.823Z,29.60
2023-04-16T02:28:45.498Z,30.70
2023-04-16T02:31:12.233Z,31.30
2023-04-16T02:33:39.056Z,30.50
2023-04-16T02:36:06.031Z,31.13
2023-04-16T02:38:32.813Z,31.90
2023-04-16T02:40:59.718Z,30.20
2023-04-16T02:43:26.299Z,31.35
2023-04-16T02:45:52.998Z,29.13
2023-04-16T02:48:19.705Z,29.40
2023-04-16T02:50:46.276Z,30.13
2023-04-16T02:53:12.986Z,29.60
2023-04-16T02:55:40.632Z,30.30
2023-04-16T02:58:07.250Z,33.33
2023-04-16T03:00:33.935Z,33.67
2023-04-16T03:03:00.846Z,31.65
2023-04-16T03:05:27.575Z,32.22
2023-04-16T03:07:56.805Z,33.08
2023-04-16T03:10:24.283Z,33.42
2023-04-16T03:12:50.932Z,34.75
2023-04-16T03:15:17.791Z,31.30
2023-04-16T03:17:44.582Z,32.40
2023-04-16T03:20:11.514Z,29.13
2023-04-16T03:22:39.677Z,30.15
2023-04-16T03:25:07.993Z,30.83
2023-04-16T03:27:35.117Z,31.17
2023-04-16T03:30:02.310Z,29.30
2023-04-16T03:32:29.069Z,29.08
2023-04-16T03:34:55.631Z,31.77
2023-04-16T03:37:22.991Z,29.98
2023-04-16T03:39:49.745Z,29.42
2023-04-16T03:42:16.498Z,30.45
2023-04-16T03:44:43.127Z,29.05
2023-04-16T03:47:09.809Z,30.20
2023-04-16T03:49:36.406Z,29.70
2023-04-16T03:52:03.216Z,29.20
2023-04-16T03:54:29.896Z,29.70
2023-04-16T03:56:57.100Z,29.05
2023-04-16T03:59:23.762Z,27.85
2023-04-16T04:01:50.949Z,26.52
2023-04-16T04:04:17.830Z,29.45
2023-04-16T04:06:46.660Z,26.85
2023-04-16T04:09:14.153Z,27.15
2023-04-16T04:11:40.844Z,26.38
2023-04-16T04:14:07.612Z,26.38
2023-04-16T04:16:35.041Z,25.98
2023-04-16T04:19:01.957Z,25.13
2023-04-16T04:21:29.352Z,24.38
2023-04-16T04:23:56.229Z,25.90
2023-04-16T04:26:22.962Z,22.30
2023-04-16T04:28:49.792Z,24.85
2023-04-16T04:31:16.613Z,25.23
2023-04-16T04:33:43.242Z,25.88
2023-04-16T04:36:09.955Z,25.13
2023-04-16T04:38:36.683Z,26.73
2023-04-16T04:41:03.310Z,23.92
2023-04-16T04:43:29.935Z,26.23
2023-04-16T04:45:56.613Z,23.88
2023-04-16T04:48:26.577Z,24.67
2023-04-16T04:50:53.904Z,25.73
2023-04-16T04:53:20.825Z,25.50
2023-04-16T04:55:50.842Z,25.52
2023-04-16T04:58:18.876Z,25.55
2023-04-16T05:00:45.527Z,25.25
2023-04-16T05:03:12.643Z,26.25
2023-04-16T05:05:41.016Z,23.10
2023-04-16T05:08:08.098Z,24.40
2023-04-16T05:10:34.733Z,25.15
2023-04-16T05:13:01.802Z,24.42
2023-04-16T05:15:28.696Z,24.27
2023-04-16T05:17:56.296Z,24.67
2023-04-16T05:20:26.132Z,24.23
2023-04-16T05:22:53.031Z,25.25
2023-04-16T05:25:19.615Z,24.27
2023-04-16T05:27:46.259Z,26.77
2023-04-16T05:30:13.134Z,24.02
2023-04-16T05:32:41.193Z,26.38
2023-04-16T05:35:08.379Z,25.75
2023-04-16T05:37:35.046Z,26.77
2023-04-16T05:40:01.647Z,25.90
2023-04-16T05:42:28.276Z,26.02
2023-04-16T05:44:55.066Z,25.15
2023-04-16T05:47:22.011Z,26.20
2023-04-16T05:49:48.609Z,24.42
2023-04-16T05:52:15.456Z,24.13
2023-04-16T05:54:42.040Z,25.48
2023-04-16T05:57:08.942Z,25.08
2023-04-16T05:59:35.687Z,23.90
2023-04-16T06:02:02.345Z,24.73
2023-04-16T06:04:30.986Z,25.85
2023-04-16T06:06:57.730Z,24.65
2023-04-16T06:09:24.841Z,23.42
2023-04-16T06:11:51.539Z,22.90
2023-04-16T06:14:18.278Z,24.27
2023-04-16T06:16:44.889Z,24.42
2023-04-16T06:19:11.729Z,24.77
2023-04-16T06:21:38.611Z,23.95
2023-04-16T06:24:05.738Z,22.90
2023-04-16T06:26:32.380Z,23.88
2023-04-16T06:28:59.295Z,22.83
2023-04-16T06:31:26.394Z,22.90
2023-04-16T06:33:52.980Z,23.35
2023-04-16T06:36:19.682Z,23.38
2023-04-16T06:38:46.553Z,22.10
2023-04-16T06:41:14.271Z,22.85
2023-04-16T06:43:41.148Z,22.35
2023-04-16T06:46:07.765Z,21.27
2023-04-16T06:48:34.434Z,24.25
2023-04-16T06:51:01.453Z,22.77
2023-04-16T06:53:28.428Z,21.65
2023-04-16T06:55:55.027Z,22.08
2023-04-16T06:58:22.663Z,22.10
2023-04-16T07:00:49.364Z,21.40
2023-04-16T07:03:16.309Z,20.23
2023-04-16T07:05:43.067Z,19.75
2023-04-16T07:08:09.902Z,18.75
2023-04-16T07:10:36.588Z,20.05
2023-04-16T07:13:03.330Z,18.45
2023-04-16T07:15:29.983Z,18.95
2023-04-16T07:17:56.680Z,19.13
2023-04-16T07:20:23.553Z,18.65
2023-04-16T07:22:50.350Z,18.00
2023-04-16T07:25:16.942Z,18.20
2023-04-16T07:27:43.815Z,19.38
2023-04-16T07:30:10.822Z,18.10
2023-04-16T07:32:37.474Z,18.70
2023-04-16T07:35:04.464Z,18.48
2023-04-16T07:37:31.348Z,19.88
2023-04-16T07:39:57.975Z,18.95
2023-04-16T07:42:24.810Z,19.10
2023-04-16T07:44:51.427Z,18.27
2023-04-16T07:47:18.037Z,18.20
2023-04-16T07:49:44.860Z,18.45
2023-04-16T07:52:12.010Z,18.35
2023-04-16T07:54:38.748Z,17.10
2023-04-16T07:57:05.808Z,17.60
2023-04-16T07:59:32.512Z,17.88
2023-04-16T08:01:59.393Z,18.70
2023-04-16T08:04:26.628Z,17.80
2023-04-16T08:06:54.412Z,17.38
2023-04-16T08:09:22.316Z,16.95
2023-04-16T08:11:50.024Z,18.60
2023-04-16T08:14:17.452Z,17.92
2023-04-16T08:16:44.203Z,16.73
2023-04-16T08:19:11.205Z,16.35
2023-04-16T08:21:37.941Z,16.77
2023-04-16T08:24:04.558Z,16.33
2023-04-16T08:26:31.272Z,15.85
2023-04-16T08:28:57.898Z,15.25
2023-04-16T08:31:24.722Z,15.50
2023-04-16T08:33:51.714Z,17.33
2023-04-16T08:36:18.428Z,15.90
2023-04-16T08:38:45.089Z,15.50
2023-04-16T08:41:13.673Z,14.88
2023-04-16T08:43:45.406Z,13.63
2023-04-16T08:46:12.872Z,14.68
2023-04-16T08:48:43.445Z,16.38
2023-04-16T08:51:11.220Z,14.38
2023-04-16T08:53:55.725Z,14.65
2023-04-16T08:56:24.661Z,13.98
2023-04-16T08:58:53.835Z,13.95
2023-04-16T09:01:20.994Z,16.75
2023-04-16T09:03:48.753Z,13.88
2023-04-16T09:06:16.738Z,14.15
2023-04-16T09:08:49.364Z,13.63
2023-04-16T09:11:19.806Z,13.88
2023-04-16T09:13:47.249Z,13.40
2023-04-16T09:16:15.532Z,12.85
2023-04-16T09:18:42.364Z,14.00
2023-04-16T09:21:12.928Z,12.65
2023-04-16T09:26:07.566Z,12.73
2023-04-16T09:28:45.520Z,12.20
2023-04-16T09:31:19.554Z,12.38
2023-04-16T09:34:12.538Z,12.45
2023-04-16T09:36:39.212Z,13.65
2023-04-16T09:39:05.837Z,12.73
2023-04-16T09:41:39.907Z,13.63
2023-04-16T09:44:06.742Z,12.90
2023-04-16T09:46:41.067Z,12.70
2023-04-16T09:49:14.051Z,12.70
2023-04-16T09:51:46.968Z,12.48
2023-04-16T09:54:13.835Z,11.32
2023-04-16T09:56:42.652Z,12.45
2023-04-16T09:59:18.027Z,11.77
2023-04-16T10:01:47.168Z,11.98
2023-04-16T10:04:13.871Z,11.65
2023-04-16T10:06:40.890Z,14.85
2023-04-16T10:09:09.448Z,10.80
2023-04-16T10:11:37.306Z,11.93
2023-04-16T10:14:04.468Z,11.57
2023-04-16T10:16:32.321Z,12.05
2023-04-16T10:18:59.525Z,11.90
2023-04-16T10:21:34.023Z,11.75
2023-04-16T10:24:01.770Z,12.60
2023-04-16T10:26:30.903Z,12.02
2023-04-16T10:28:58.799Z,11.93
2023-04-16T10:31:27.384Z,12.60
2023-04-16T10:33:55.321Z,12.27
2023-04-16T10:36:29.340Z,12.52
2023-04-16T10:39:00.763Z,12.10
2023-04-16T10:41:27.729Z,11.50
2023-04-16T10:44:11.270Z,11.35
2023-04-16T10:46:43.140Z,12.07
2023-04-16T10:49:19.959Z,12.45
2023-04-16T10:51:59.702Z,11.63
2023-04-16T10:54:31.167Z,11.67
2023-04-16T10:57:00.800Z,11.88
2023-04-16T10:59:37.170Z,10.77
2023-04-16T11:02:09.127Z,11.30
2023-04-16T11:04:37.632Z,11.70
2023-04-16T11:07:19.732Z,10.77
2023-04-16T11:10:00.268Z,12.10
2023-04-16T11:15:08.869Z,11.60
2023-04-16T11:17:57.941Z,11.77
2023-04-16T11:20:26.754Z,11.60
2023-04-16T11:22:55.436Z,12.32
2023-04-16T11:25:23.925Z,11.10
2023-04-16T11:27:51.310Z,12.38
2023-04-16T11:30:19.086Z,13.25
2023-04-16T11:32:47.146Z,12.13
2023-04-16T11:35:18.814Z,12.73
2023-04-16T11:37:46.339Z,12.60
2023-04-16T11:40:13.173Z,13.10
2023-04-16T11:42:41.588Z,12.57
2023-04-16T11:45:11.020Z,13.00
2023-04-16T11:47:44.876Z,12.63
2023-04-16T11:50:20.602Z,12.88
2023-04-16T11:52:48.316Z,14.02
2023-04-16T11:55:15.510Z,13.45
2023-04-16T11:57:42.257Z,15.05
2023-04-16T12:00:14.065Z,13.88
2023-04-16T12:02:43.918Z,14.43
2023-04-16T12:05:31.498Z,14.20
2023-04-16T12:07:59.643Z,13.88
2023-04-16T12:10:27.095Z,14.15
2023-04-16T12:12:53.937Z,14.25
2023-04-16T12:15:20.681Z,14.10
2023-04-16T12:17:48.804Z,14.27
2023-04-16T12:20:16.328Z,13.52
2023-04-16T12:22:47.731Z,15.20
2023-04-16T12:25:16.801Z,12.63
2023-04-16T12:27:56.022Z,13.38
2023-04-16T12:30:24.456Z,14.27
2023-04-16T12:32:53.587Z,14.23
2023-04-16T12:35:34.183Z,13.98
2023-04-16T12:38:01.546Z,16.65
2023-04-16T12:40:28.323Z,14.60
2023-04-16T12:42:55.652Z,14.63
2023-04-16T12:45:22.512Z,14.75
2023-04-16T12:47:50.528Z,15.25
2023-04-16T12:50:17.853Z,14.23
2023-04-16T12:52:44.729Z,13.45
2023-04-16T12:55:12.525Z,13.82
2023-04-16T12:57:39.365Z,14.63
2023-04-16T13:00:06.813Z,13.38
2023-04-16T13:02:34.207Z,13.38
2023-04-16T13:05:01.716Z,14.77
2023-04-16T13:07:29.050Z,13.23
2023-04-16T13:09:55.780Z,14.73
2023-04-16T13:12:22.937Z,14.00
2023-04-16T13:14:49.594Z,14.13
2023-04-16T13:17:16.274Z,13.68
2023-04-16T13:19:43.389Z,13.65
2023-04-16T13:22:10.082Z,13.95
2023-04-16T13:24:36.829Z,14.05
2023-04-16T13:27:03.720Z,13.15
2023-04-16T13:29:30.839Z,13.60
2023-04-16T13:31:57.595Z,13.70
2023-04-16T13:34:24.366Z,14.82
2023-04-16T13:36:50.988Z,13.80
2023-04-16T13:39:18.271Z,14.48
2023-04-16T13:41:45.349Z,14.43
2023-04-16T13:44:12.015Z,14.48
2023-04-16T13:46:38.655Z,14.32
2023-04-16T13:49:05.604Z,15.50
2023-04-16T13:51:32.465Z,14.63
2023-04-16T13:53:59.115Z,13.88
2023-04-16T13:56:26.191Z,13.13
2023-04-16T13:58:52.946Z,13.90
2023-04-16T14:01:19.834Z,13.57
2023-04-16T14:03:47.788Z,13.38
2023-04-16T14:06:15.084Z,14.40
2023-04-16T14:08:41.685Z,13.60
2023-04-16T14:11:09.419Z,13.15
2023-04-16T14:13:36.580Z,14.10
2023-04-16T14:16:03.305Z,12.77
2023-04-16T14:18:30.233Z,12.73
2023-04-16T14:20:57.616Z,12.85
2023-04-16T14:23:24.211Z,12.25
2023-04-16T14:25:51.125Z,13.27
2023-04-16T14:28:17.786Z,14.05
2023-04-16T14:30:44.529Z,13.52
2023-04-16T14:33:11.578Z,14.05
2023-04-16T14:35:38.192Z,14.10
2023-04-16T14:38:04.811Z,14.40
2023-04-16T14:40:31.728Z,15.15
2023-04-16T14:42:58.326Z,12.50
2023-04-16T14:45:29.000Z,13.55
2023-04-16T14:47:56.057Z,13.52
2023-04-16T14:50:22.878Z,14.50
2023-04-16T14:52:50.826Z,15.32
2023-04-16T14:55:18.663Z,14.38
2023-04-16T14:57:45.461Z,13.60
2023-04-16T15:00:13.497Z,14.05
2023-04-16T15:02:40.726Z,13.73
2023-04-16T15:05:10.174Z,12.85
2023-04-16T15:07:37.160Z,12.45
2023-04-16T15:10:04.549Z,12.50
2023-04-16T15:12:31.296Z,13.00
2023-04-16T15:14:59.827Z,12.90
2023-04-16T15:17:26.886Z,13.38
2023-04-16T15:19:53.659Z,13.00
2023-04-16T15:22:20.317Z,13.15
2023-04-16T15:24:47.286Z,12.38
2023-04-16T15:27:14.753Z,12.55
2023-04-16T15:29:41.369Z,13.63
2023-04-16T15:32:08.317Z,13.00
2023-04-16T15:34:34.934Z,12.43
2023-04-16T15:37:01.702Z,12.88
2023-04-16T15:39:28.825Z,12.05
2023-04-16T15:42:01.553Z,13.57
2023-04-16T15:44:31.089Z,14.02
2023-04-16T15:46:57.863Z,14.07
2023-04-16T15:49:24.836Z,13.40
2023-04-16T15:51:52.599Z,13.93
2023-04-16T15:54:19.287Z,13.70
2023-04-16T15:56:46.700Z,14.10
2023-04-16T15:59:13.785Z,13.82
2023-04-16T16:01:40.848Z,14.25
2023-04-16T16:04:08.206Z,13.90
2023-04-16T16:06:35.835Z,14.15
2023-04-16T16:09:02.513Z,14.20
2023-04-16T16:11:29.146Z,14.40
2023-04-16T16:13:55.935Z,14.18
2023-04-16T16:16:22.672Z,13.65
2023-04-16T16:18:49.413Z,14.02
2023-04-16T16:21:16.867Z,15.52
2023-04-16T16:23:43.491Z,14.70
2023-04-16T16:26:10.067Z,14.68
2023-04-16T16:28:38.165Z,16.10
2023-04-16T16:31:06.047Z,15.60
2023-04-16T16:33:33.297Z,16.35
2023-04-16T16:36:00.168Z,16.13
2023-04-16T16:38:27.122Z,16.33
2023-04-16T16:40:53.736Z,17.13
2023-04-16T16:43:20.820Z,17.80
2023-04-16T16:45:47.522Z,17.48
2023-04-16T16:48:14.299Z,16.70
2023-04-16T16:50:41.177Z,17.08
2023-04-16T16:53:07.826Z,16.77
2023-04-16T16:55:35.558Z,17.63
2023-04-16T16:58:02.773Z,16.30
2023-04-16T17:00:29.387Z,17.02
2023-04-16T17:02:56.299Z,17.98
2023-04-16T17:05:23.336Z,17.50
2023-04-16T17:07:50.028Z,18.67
2023-04-16T17:10:20.438Z,17.10
2023-04-16T17:12:48.469Z,19.13
2023-04-16T17:15:15.745Z,18.83
2023-04-16T17:17:42.957Z,19.33
2023-04-16T17:20:10.981Z,18.13
2023-04-16T17:22:39.113Z,19.30
2023-04-16T17:25:09.966Z,18.02
2023-04-16T17:27:37.009Z,18.65
2023-04-16T17:30:05.430Z,18.08
2023-04-16T17:32:33.005Z,18.27
2023-04-16T17:35:01.528Z,16.77
2023-04-16T17:37:28.809Z,18.45
2023-04-16T17:39:55.531Z,18.10
2023-04-16T17:42:22.369Z,16.70
2023-04-16T17:44:48.984Z,18.00
2023-04-16T17:47:15.583Z,18.17
2023-04-16T17:49:42.774Z,17.40
2023-04-16T17:52:09.517Z,18.40
2023-04-16T17:54:36.304Z,17.05
2023-04-16T17:57:03.116Z,16.75
2023-04-16T17:59:29.753Z,17.60
2023-04-16T18:01:56.813Z,18.17
2023-04-16T18:04:23.829Z,19.80
2023-04-16T18:06:50.783Z,15.57
2023-04-16T18:09:19.195Z,19.52
2023-04-16T18:11:45.983Z,21.77
2023-04-16T18:14:16.657Z,29.20
2023-04-16T18:16:43.445Z,20.98
2023-04-16T18:19:10.305Z,17.27
2023-04-16T18:21:36.921Z,17.00
2023-04-16T18:24:03.618Z,18.13
2023-04-16T18:26:31.193Z,17.45
2023-04-16T18:28:59.971Z,18.00
2023-04-16T18:31:27.168Z,16.17
2023-04-16T18:33:58.053Z,18.45
2023-04-16T18:36:27.002Z,16.83
2023-04-16T18:39:01.469Z,18.63
2023-04-16T18:41:41.782Z,17.83
2023-04-16T18:44:10.718Z,17.83
2023-04-16T18:46:37.421Z,17.50
2023-04-16T18:49:04.342Z,19.23
2023-04-16T18:51:31.114Z,18.77
2023-04-16T18:53:57.728Z,19.00
2023-04-16T18:56:24.763Z,18.13
2023-04-16T18:58:51.444Z,19.40
2023-04-16T19:01:18.345Z,19.00
2023-04-16T19:03:45.625Z,18.98
2023-04-16T19:06:12.365Z,16.83
2023-04-16T19:08:39.027Z,17.63
2023-04-16T19:11:05.859Z,15.55
2023-04-16T19:13:32.547Z,16.77
2023-04-16T19:16:00.637Z,15.00
2023-04-16T19:18:27.802Z,14.20
2023-04-16T19:21:01.814Z,14.70
2023-04-16T19:23:29.607Z,13.75
2023-04-16T19:25:56.957Z,15.00
2023-04-16T19:28:25.082Z,15.10
2023-04-16T19:30:52.830Z,14.15
2023-04-16T19:33:19.681Z,14.07
2023-04-16T19:35:47.261Z,15.27
2023-04-16T19:38:14.360Z,15.38
2023-04-16T19:40:43.941Z,13.70
2023-04-16T19:43:10.692Z,14.65
2023-04-16T19:45:43.240Z,15.20
2023-04-16T19:48:09.970Z,15.07
2023-04-16T19:50:39.396Z,15.05
2023-04-16T19:53:06.409Z,14.20
2023-04-16T19:55:33.082Z,15.75
2023-04-16T19:58:05.707Z,13.98
2023-04-16T20:00:42.487Z,16.02
2023-04-16T20:03:09.477Z,15.77
2023-04-16T20:05:36.442Z,15.07
2023-04-16T20:08:03.222Z,15.55
2023-04-16T20:10:31.546Z,15.35
2023-04-16T20:12:58.502Z,14.43
2023-04-16T20:15:25.201Z,15.40
2023-04-16T20:17:52.466Z,16.05
2023-04-16T20:20:19.132Z,16.48
2023-04-16T20:22:45.929Z,17.00
2023-04-16T20:25:14.433Z,33.33
2023-04-16T20:27:41.094Z,17.65
2023-04-16T20:30:08.417Z,14.93
2023-04-16T20:32:35.366Z,16.55
2023-04-16T20:35:02.338Z,17.02
2023-04-16T20:37:29.293Z,16.65
2023-04-16T20:39:56.524Z,17.70
2023-04-16T20:42:26.121Z,17.55
2023-04-16T20:44:56.282Z,15.60
2023-04-16T20:47:23.625Z,16.25
2023-04-16T20:49:50.607Z,16.30
2023-04-16T20:52:17.207Z,15.75
2023-04-16T20:54:44.400Z,17.13
2023-04-16T20:57:11.127Z,15.35
2023-04-16T20:59:37.834Z,14.93
2023-04-16T21:02:06.843Z,14.40
2023-04-16T21:04:33.580Z,13.65
2023-04-16T21:07:04.383Z,15.20
2023-04-16T21:09:31.724Z,15.30
2023-04-16T21:11:58.450Z,14.70
2023-04-16T21:14:25.268Z,15.73
2023-04-16T21:16:52.302Z,16.20
2023-04-16T21:19:18.957Z,16.17
2023-04-16T21:21:45.580Z,16.17
2023-04-16T22:13:36.760Z,19.20
2023-04-16T22:16:03.910Z,19.50
2023-04-16T22:18:33.786Z,21.15
2023-04-16T22:21:01.093Z,19.83
2023-04-16T22:23:27.823Z,19.00
2023-04-16T22:25:56.768Z,17.60
2023-04-16T22:28:23.870Z,18.45
2023-04-16T22:30:50.531Z,18.88
2023-04-16T22:33:17.342Z,19.05
2023-04-16T22:35:44.133Z,19.05
2023-04-16T22:38:10.981Z,18.15
2023-04-16T22:40:37.705Z,18.05
2023-04-16T22:43:05.000Z,18.58
2023-04-16T22:45:31.748Z,18.85
2023-04-16T22:47:58.539Z,19.35
2023-04-16T22:50:25.509Z,18.35
2023-04-16T22:52:52.123Z,18.05
2023-04-16T22:55:18.800Z,20.10
2023-04-16T22:57:45.464Z,20.02
2023-04-16T23:00:16.208Z,18.42
2023-04-16T23:02:43.594Z,19.42
2023-04-16T23:05:11.107Z,19.48
2023-04-16T23:07:37.782Z,19.98
2023-04-16T23:10:04.827Z,20.17
2023-04-16T23:12:31.797Z,19.77
2023-04-16T23:15:00.589Z,20.13
2023-04-16T23:17:28.035Z,21.65
2023-04-16T23:19:54.993Z,20.13
2023-04-16T23:22:21.737Z,20.77
2023-04-16T23:24:48.328Z,19.67
2023-04-16T23:27:15.062Z,22.08
2023-04-16T23:29:41.683Z,20.67
2023-04-16T23:32:08.283Z,21.08
2023-04-16T23:34:35.240Z,20.60
2023-04-16T23:37:01.853Z,21.25
2023-04-16T23:39:28.511Z,19.25
2023-04-16T23:41:55.456Z,21.20
2023-04-16T23:44:22.002Z,20.60
2023-04-16T23:46:48.727Z,21.17
2023-04-16T23:49:15.567Z,21.48
2023-04-16T23:51:42.142Z,20.27
2023-04-16T23:54:08.710Z,20.05
2023-04-16T23:56:35.731Z,21.20
2023-04-16T23:59:02.356Z,21.33
